Yichun Heilongjiang, China
Current Conditions -  °F | °C
As of 1:00 PM on Saturday 25 Oct 2014 (Local Time) from ZYHB Reporting Station
Clear Clear  
Wind Chill: 50°   Ceiling: Unl
Heat Index: 50°   Visibility: 4mi
Dew Point: 37°   Wind: 7mph
Humidity: 62%   Direction: 330°NNW
Pressure: 29.83"   Gusts: NA
Location:  47.7°N, 128.9°E
Report Text: ZYHB 250500Z 33003MPS 300V020 6000 NSC 10/03 Q1010 NOSIG
Loading
Personal Weather Stations






























Interactive Weather Map
Tropical Storm Tracking
New forecast layout! Learn more

10-Day Weather Forecast

Advertisements
Track Severe Weather on mobile